OEDFOKBK

Guest
Details From OEDF - KING FAHD INTL
To OKBK - KUWAIT INTL
Flight Number -
Tags generated
Created
Modified
Stats Distance 192 nm / 355 km
Max Altitude 20,000 ft / 6,096 m
Waypoints 3
Social Downloads 3
Likes 0
Share VATSIM

Download

Looking for another format? Having issues loading an existing format? Contact us
Advertisement - Login to hide

Notes

Basic altitude profile: - Ascent Rate: 2500ft/min - Ascent Speed: 250kts - Cruise Altitude: 35000ft - Cruise Speed: 420kts - Descent Rate: 1500ft/min - Descent Speed: 250kts Options: - Use NATs: yes - Use PACOTS: yes - Use low airways: yes - Use high airways: yes

Route

OEDF DAVGU OKBK

ID Type Via Altitude Latitude Longitude Leg Dist Tot Dist Heading (true) Name
O OEDF APT - 0 ft / 0 m 26.47120˚ 49.79790˚ - 0 nm - KING FAHD INTL
DAVGU FIX - 20,000 ft / 6,096 m 27.83694˚ 48.78694˚ 98 nm 98 nm 327° / 326° -
O OKBK APT - 0 ft / 0 m 29.22672˚ 47.97997˚ 93 nm 191 nm 333° / 333° KUWAIT INTL

Altitude Profile

Advertisement - Login to hide

Weather


0- 5 10 15 20 25 30 35+ Temperature / ° C

Clouds and Precipitation
Forecast for 2018-05-27 12:00 UTC. Updated an hour ago

Ground ~20,000 ft ~40,000 ft Winds

OEDF

Details ICAO OEDF (DMM)
Name KING FAHD INTL
Region Saudi Arabia
Timezone Asia/Riyadh (UTC+3.0)
Stats Elevation 72 ft / 22 m (AMSL)
Location 26.471197° 49.797900°
Runways 2
Magnetic Variation 2.917° E

METAR

OEDF 271000Z 01013KT CAVOK 41/05 Q1005 NOSIG

Decode

TAF

TAF OEDF 262100Z 2700/2806 VRB03KT CAVOK BECMG 2708/2710 05012KT= TAF OEDR 262100Z 2700/2806 VRB03KT CAVOK BECMG 2708/2710 05012KT

Decode

Departure Runways

ID Width Length Bearing (true) Bearing (mag) Surface Threshold Offset Overrun Length
16L 197 ft / 60 m 13,170 ft / 4,014 m 164.55° 161.63° Asphalt 0 ft / 0 m 1,130 ft / 344 m
16R 197 ft / 60 m 13,170 ft / 4,014 m 164.54° 161.62° Asphalt 0 ft / 0 m 1,130 ft / 344 m
34L 197 ft / 60 m 13,170 ft / 4,014 m 344.54° 341.62° Asphalt 0 ft / 0 m 1,130 ft / 344 m
34R 197 ft / 60 m 13,170 ft / 4,014 m 344.55° 341.63° Asphalt 0 ft / 0 m 1,130 ft / 344 m

OKBK

Details ICAO OKBK (KWI)
Name KUWAIT INTL
Region Kuwait
Timezone Asia/Kuwait (UTC+3.0)
Stats Elevation 206 ft / 63 m (AMSL)
Location 29.226716° 47.979968°
Runways 2
Magnetic Variation 3.597° E

METAR

OKBK 271000Z 35010KT CAVOK 43/07 Q1007 NOSIG

Decode

TAF

TAF TAF AMD OKBK 270310Z 2703/2806 35012KT 7000 NSC TEMPO 2703/2709 VRB03KT 3500 HZ

Decode

Destination Runways

ID Width Length Bearing (true) Bearing (mag) Surface Threshold Offset Overrun Length
15L 148 ft / 45 m 11,515 ft / 3,510 m 155.13° 151.53° Asphalt 0 ft / 0 m 394 ft / 120 m
15R 148 ft / 45 m 11,188 ft / 3,410 m 155.12° 151.52° Concrete 0 ft / 0 m 197 ft / 60 m
33L 148 ft / 45 m 11,188 ft / 3,410 m 335.13° 331.53° Concrete 0 ft / 0 m 197 ft / 60 m
33R 148 ft / 45 m 11,515 ft / 3,510 m 335.14° 331.54° Asphalt 0 ft / 0 m 394 ft / 120 m

Approach Navaids

Runway Type Ident Frequency Range Bearing (true) Bearing (mag) Slope Elevation
15L Localiser IKIC 110.10 MHz 18 nm / 33 km 155.14° 151.54° - 222 ft / 68 m (AMSL)
15L Glidescope IKIC 110.10 MHz 10 nm / 19 km 155.13° 151.54° 3.00° 208 ft / 63 m (AMSL)
15L DME IKIC 110.10 MHz 18 nm / 33 km - - - 208 ft / 63 m (AMSL)
15R Localiser IKIB 111.30 MHz 18 nm / 33 km 155.12° 151.53° - 180 ft / 55 m (AMSL)
15R Glidescope IKIB 111.30 MHz 10 nm / 19 km 155.12° 151.53° 3.00° 196 ft / 60 m (AMSL)
15R DME IKIB 111.30 MHz 18 nm / 33 km - - - 196 ft / 60 m (AMSL)
33L Localiser IKIA 109.50 MHz 18 nm / 33 km 335.12° 331.53° - 148 ft / 45 m (AMSL)
33L Glidescope IKIA 109.50 MHz 10 nm / 19 km 335.12° 331.53° 3.00° 201 ft / 61 m (AMSL)
33L DME IKIA 109.50 MHz 18 nm / 33 km - - - 201 ft / 61 m (AMSL)
33R Localiser IKID 110.50 MHz 18 nm / 33 km 335.13° 331.54° - 172 ft / 52 m (AMSL)
33R Glidescope IKID 110.50 MHz 10 nm / 19 km 335.13° 331.54° 3.00° 235 ft / 72 m (AMSL)
33R DME IKID 110.50 MHz 18 nm / 33 km - - - 235 ft / 72 m (AMSL)

Popular Alternatives